sensor_id;sensor_type;location;lat;lon;timestamp;pressure;altitude;pressure_sealevel;temperature;humidity
64019;BME280;66942;52.138;5.216;2023-03-19T00:00:07;101061.0;;;16.65;59.66
64019;BME280;66942;52.138;5.216;2023-03-19T00:01:44;101062.0;;;16.77;59.2
64019;BME280;66942;52.138;5.216;2023-03-19T00:04:56;101061.0;;;16.45;59.76
64019;BME280;66942;52.138;5.216;2023-03-19T00:06:32;101056.0;;;16.57;59.53
64019;BME280;66942;52.138;5.216;2023-03-19T00:08:10;101060.0;;;16.68;59.26
64019;BME280;66942;52.138;5.216;2023-03-19T00:12:58;101060.0;;;16.61;59.44
64019;BME280;66942;52.138;5.216;2023-03-19T00:14:34;101066.0;;;16.61;59.16
64019;BME280;66942;52.138;5.216;2023-03-19T00:17:46;101063.0;;;16.77;58.82
64019;BME280;66942;52.138;5.216;2023-03-19T00:19:22;101069.0;;;16.7;59.14
64019;BME280;66942;52.138;5.216;2023-03-19T00:20:58;101072.0;;;16.68;59.25
64019;BME280;66942;52.138;5.216;2023-03-19T00:24:11;101069.0;;;16.64;59.58
64019;BME280;66942;52.138;5.216;2023-03-19T00:25:47;101078.0;;;16.64;59.36
64019;BME280;66942;52.138;5.216;2023-03-19T00:27:23;101075.0;;;16.5;59.79
64019;BME280;66942;52.138;5.216;2023-03-19T00:29:00;101078.0;;;16.72;59.08
64019;BME280;66942;52.138;5.216;2023-03-19T00:32:12;101082.0;;;16.93;58.44
64019;BME280;66942;52.138;5.216;2023-03-19T00:33:49;101078.0;;;16.54;59.41
64019;BME280;66942;52.138;5.216;2023-03-19T00:35:26;101078.0;;;16.75;58.87
64019;BME280;66942;52.138;5.216;2023-03-19T00:38:39;101080.0;;;16.64;59.02
64019;BME280;66942;52.138;5.216;2023-03-19T00:40:15;101080.0;;;16.52;59.3
64019;BME280;66942;52.138;5.216;2023-03-19T00:41:52;101082.0;;;16.64;59.13
64019;BME280;66942;52.138;5.216;2023-03-19T00:45:06;101083.0;;;16.63;59.21
64019;BME280;66942;52.138;5.216;2023-03-19T00:46:43;101086.0;;;16.71;59.02
64019;BME280;66942;52.138;5.216;2023-03-19T00:48:20;101083.0;;;16.57;59.48
64019;BME280;66942;52.138;5.216;2023-03-19T00:49:56;101081.0;;;16.43;59.82
64019;BME280;66942;52.138;5.216;2023-03-19T00:53:09;101082.0;;;16.5;59.5
64019;BME280;66942;52.138;5.216;2023-03-19T00:54:45;101080.0;;;16.41;59.64
64019;BME280;66942;52.138;5.216;2023-03-19T00:56:22;101080.0;;;16.34;59.87
64019;BME280;66942;52.138;5.216;2023-03-19T00:59:34;101083.0;;;16.31;59.8
64019;BME280;66942;52.138;5.216;2023-03-19T01:01:13;101088.0;;;16.3;59.67
64019;BME280;66942;52.138;5.216;2023-03-19T01:02:51;101083.0;;;16.25;59.91
64019;BME280;66942;52.138;5.216;2023-03-19T01:06:05;101088.0;;;16.27;59.67
64019;BME280;66942;52.138;5.216;2023-03-19T01:07:41;101093.0;;;16.2;59.88
64019;BME280;66942;52.138;5.216;2023-03-19T01:09:18;101089.0;;;15.87;60.78
64019;BME280;66942;52.138;5.216;2023-03-19T01:10:55;101092.0;;;16.23;59.88
64019;BME280;66942;52.138;5.216;2023-03-19T01:14:15;101090.0;;;16.07;60.21
64019;BME280;66942;52.138;5.216;2023-03-19T01:15:52;101091.0;;;16.09;60.14
64019;BME280;66942;52.138;5.216;2023-03-19T01:17:28;101093.0;;;16.23;59.7
64019;BME280;66942;52.138;5.216;2023-03-19T01:20:40;101094.0;;;16.15;59.94
64019;BME280;66942;52.138;5.216;2023-03-19T01:22:18;101097.0;;;15.97;60.6
64019;BME280;66942;52.138;5.216;2023-03-19T01:23:55;101095.0;;;15.95;60.71
64019;BME280;66942;52.138;5.216;2023-03-19T01:25:32;101091.0;;;16.09;60.47
64019;BME280;66942;52.138;5.216;2023-03-19T01:28:47;101094.0;;;16.02;60.77
64019;BME280;66942;52.138;5.216;2023-03-19T01:30:23;101097.0;;;16.06;60.71
64019;BME280;66942;52.138;5.216;2023-03-19T01:31:59;101098.0;;;15.87;61.52
64019;BME280;66942;52.138;5.216;2023-03-19T01:35:11;101091.0;;;16.18;60.53
64019;BME280;66942;52.138;5.216;2023-03-19T01:36:48;101094.0;;;16.22;60.53
64019;BME280;66942;52.138;5.216;2023-03-19T01:38:25;101091.0;;;16.2;60.58
64019;BME280;66942;52.138;5.216;2023-03-19T01:41:39;101085.0;;;16.29;60.33
64019;BME280;66942;52.138;5.216;2023-03-19T01:43:17;101089.0;;;16.12;60.99
64019;BME280;66942;52.138;5.216;2023-03-19T01:44:55;101092.0;;;16.04;61.2
64019;BME280;66942;52.138;5.216;2023-03-19T01:46:33;101094.0;;;16.2;60.8
64019;BME280;66942;52.138;5.216;2023-03-19T01:49:59;101088.0;;;16.31;60.3
64019;BME280;66942;52.138;5.216;2023-03-19T01:51:39;101096.0;;;16.25;60.59
64019;BME280;66942;52.138;5.216;2023-03-19T01:53:18;101089.0;;;16.37;60.24
64019;BME280;66942;52.138;5.216;2023-03-19T01:54:58;101088.0;;;16.43;60.11
64019;BME280;66942;52.138;5.216;2023-03-19T01:58:16;101090.0;;;16.32;60.33
64019;BME280;66942;52.138;5.216;2023-03-19T01:59:55;101092.0;;;16.21;60.55
64019;BME280;66942;52.138;5.216;2023-03-19T02:01:40;101092.0;;;16.46;59.88
64019;BME280;66942;52.138;5.216;2023-03-19T02:03:20;101089.0;;;16.46;59.73
64019;BME280;66942;52.138;5.216;2023-03-19T02:06:42;101093.0;;;16.2;60.34
64019;BME280;66942;52.138;5.216;2023-03-19T02:08:20;101096.0;;;16.25;60.33
64019;BME280;66942;52.138;5.216;2023-03-19T02:10:00;101100.0;;;16.2;60.42
64019;BME280;66942;52.138;5.216;2023-03-19T02:11:37;101101.0;;;16.06;60.77
64019;BME280;66942;52.138;5.216;2023-03-19T02:14:50;101102.0;;;16.07;60.68
64019;BME280;66942;52.138;5.216;2023-03-19T02:16:28;101105.0;;;15.97;60.82
64019;BME280;66942;52.138;5.216;2023-03-19T02:18:05;101111.0;;;15.91;61.15
64019;BME280;66942;52.138;5.216;2023-03-19T02:21:26;101105.0;;;15.98;60.91
64019;BME280;66942;52.138;5.216;2023-03-19T02:23:10;101108.0;;;15.88;61.24
64019;BME280;66942;52.138;5.216;2023-03-19T02:24:52;101105.0;;;16.03;60.79
64019;BME280;66942;52.138;5.216;2023-03-19T02:26:32;101101.0;;;16.14;60.41
64019;BME280;66942;52.138;5.216;2023-03-19T02:29:46;101101.0;;;16.02;60.81
64019;BME280;66942;52.138;5.216;2023-03-19T02:31:22;101101.0;;;16.11;60.59
64019;BME280;66942;52.138;5.216;2023-03-19T02:32:59;101108.0;;;16.02;60.86
64019;BME280;66942;52.138;5.216;2023-03-19T02:34:38;101108.0;;;16.18;60.54
64019;BME280;66942;52.138;5.216;2023-03-19T02:37:54;101109.0;;;15.98;61.12
64019;BME280;66942;52.138;5.216;2023-03-19T02:39:33;101108.0;;;16.16;60.64
64019;BME280;66942;52.138;5.216;2023-03-19T02:41:13;101106.0;;;16.18;60.55
64019;BME280;66942;52.138;5.216;2023-03-19T02:42:49;101110.0;;;16.27;60.36
64019;BME280;66942;52.138;5.216;2023-03-19T02:46:06;101108.0;;;16.14;60.55
64019;BME280;66942;52.138;5.216;2023-03-19T02:47:44;101112.0;;;16.25;60.26
64019;BME280;66942;52.138;5.216;2023-03-19T02:49:20;101115.0;;;15.9;60.96
64019;BME280;66942;52.138;5.216;2023-03-19T02:52:34;101119.0;;;15.9;61.0
64019;BME280;66942;52.138;5.216;2023-03-19T02:54:10;101119.0;;;15.89;60.92
64019;BME280;66942;52.138;5.216;2023-03-19T02:55:48;101116.0;;;16.02;60.43
64019;BME280;66942;52.138;5.216;2023-03-19T02:59:03;101118.0;;;16.09;60.22
64019;BME280;66942;52.138;5.216;2023-03-19T03:00:39;101122.0;;;16.02;60.31
64019;BME280;66942;52.138;5.216;2023-03-19T03:02:17;101125.0;;;15.94;60.55
64019;BME280;66942;52.138;5.216;2023-03-19T03:03:54;101126.0;;;15.85;60.78
64019;BME280;66942;52.138;5.216;2023-03-19T03:07:09;101120.0;;;15.71;60.93
64019;BME280;66942;52.138;5.216;2023-03-19T03:08:46;101117.0;;;15.6;61.25
64019;BME280;66942;52.138;5.216;2023-03-19T03:10:23;101118.0;;;15.84;60.58
64019;BME280;66942;52.138;5.216;2023-03-19T03:13:36;101121.0;;;15.58;61.22
64019;BME280;66942;52.138;5.216;2023-03-19T03:15:12;101116.0;;;15.6;61.32
64019;BME280;66942;52.138;5.216;2023-03-19T03:16:48;101119.0;;;15.62;61.3
64019;BME280;66942;52.138;5.216;2023-03-19T03:18:25;101121.0;;;15.63;61.04
64019;BME280;66942;52.138;5.216;2023-03-19T03:21:38;101123.0;;;15.69;61.12
64019;BME280;66942;52.138;5.216;2023-03-19T03:23:15;101125.0;;;15.37;62.18
64019;BME280;66942;52.138;5.216;2023-03-19T03:24:51;101122.0;;;15.62;61.59
64019;BME280;66942;52.138;5.216;2023-03-19T03:28:03;101120.0;;;15.68;61.48
64019;BME280;66942;52.138;5.216;2023-03-19T03:29:40;101123.0;;;15.7;61.37
64019;BME280;66942;52.138;5.216;2023-03-19T03:31:16;101122.0;;;15.47;62.06
64019;BME280;66942;52.138;5.216;2023-03-19T03:34:29;101123.0;;;15.67;61.51
64019;BME280;66942;52.138;5.216;2023-03-19T03:36:06;101123.0;;;15.45;62.01
64019;BME280;66942;52.138;5.216;2023-03-19T03:37:43;101130.0;;;15.3;62.27
64019;BME280;66942;52.138;5.216;2023-03-19T03:39:19;101124.0;;;15.56;61.71
64019;BME280;66942;52.138;5.216;2023-03-19T03:42:33;101124.0;;;15.62;61.42
64019;BME280;66942;52.138;5.216;2023-03-19T03:44:09;101130.0;;;15.46;61.5
64019;BME280;66942;52.138;5.216;2023-03-19T03:45:47;101130.0;;;15.45;61.37
64019;BME280;66942;52.138;5.216;2023-03-19T03:49:00;101130.0;;;15.47;61.2
64019;BME280;66942;52.138;5.216;2023-03-19T03:50:36;101133.0;;;15.24;61.83
64019;BME280;66942;52.138;5.216;2023-03-19T03:52:14;101132.0;;;15.48;60.88
64019;BME280;66942;52.138;5.216;2023-03-19T03:55:25;101130.0;;;15.24;61.56
64019;BME280;66942;52.138;5.216;2023-03-19T03:57:03;101130.0;;;15.17;61.5
64019;BME280;66942;52.138;5.216;2023-03-19T03:58:40;101127.0;;;15.12;61.65
64019;BME280;66942;52.138;5.216;2023-03-19T04:00:17;101124.0;;;15.02;61.66
64019;BME280;66942;52.138;5.216;2023-03-19T04:03:30;101126.0;;;14.98;61.96
64019;BME280;66942;52.138;5.216;2023-03-19T04:05:06;101130.0;;;15.28;60.71
64019;BME280;66942;52.138;5.216;2023-03-19T04:06:43;101128.0;;;14.99;61.23
64019;BME280;66942;52.138;5.216;2023-03-19T04:09:56;101128.0;;;14.86;61.64
64019;BME280;66942;52.138;5.216;2023-03-19T04:11:33;101125.0;;;14.74;61.87
64019;BME280;66942;52.138;5.216;2023-03-19T04:13:11;101122.0;;;14.74;61.61
64019;BME280;66942;52.138;5.216;2023-03-19T04:16:23;101123.0;;;14.65;61.99
64019;BME280;66942;52.138;5.216;2023-03-19T04:18:01;101126.0;;;14.39;62.56
64019;BME280;66942;52.138;5.216;2023-03-19T04:19:38;101128.0;;;14.18;63.12
64019;BME280;66942;52.138;5.216;2023-03-19T04:21:14;101128.0;;;14.43;62.29
64019;BME280;66942;52.138;5.216;2023-03-19T04:24:27;101122.0;;;14.59;61.47
64019;BME280;66942;52.138;5.216;2023-03-19T04:26:05;101121.0;;;14.46;61.73
64019;BME280;66942;52.138;5.216;2023-03-19T04:27:41;101117.0;;;14.47;61.53
64019;BME280;66942;52.138;5.216;2023-03-19T04:30:58;101118.0;;;14.59;61.2
64019;BME280;66942;52.138;5.216;2023-03-19T04:32:35;101116.0;;;14.49;61.22
64019;BME280;66942;52.138;5.216;2023-03-19T04:34:11;101122.0;;;14.1;62.56
64019;BME280;66942;52.138;5.216;2023-03-19T04:35:47;101126.0;;;13.82;63.29
64019;BME280;66942;52.138;5.216;2023-03-19T04:38:59;101128.0;;;13.79;63.5
64019;BME280;66942;52.138;5.216;2023-03-19T04:40:35;101125.0;;;14.06;62.31
64019;BME280;66942;52.138;5.216;2023-03-19T04:42:12;101128.0;;;13.95;62.2
64019;BME280;66942;52.138;5.216;2023-03-19T04:45:25;101131.0;;;13.95;61.93
64019;BME280;66942;52.138;5.216;2023-03-19T04:47:02;101130.0;;;13.82;62.68
64019;BME280;66942;52.138;5.216;2023-03-19T04:48:38;101139.0;;;13.76;62.62
64019;BME280;66942;52.138;5.216;2023-03-19T04:51:50;101135.0;;;13.68;62.7
64019;BME280;66942;52.138;5.216;2023-03-19T04:53:26;101133.0;;;13.72;62.38
64019;BME280;66942;52.138;5.216;2023-03-19T04:55:05;101139.0;;;13.66;62.47
64019;BME280;66942;52.138;5.216;2023-03-19T04:56:42;101144.0;;;13.59;62.51
64019;BME280;66942;52.138;5.216;2023-03-19T04:59:57;101151.0;;;13.61;62.43
64019;BME280;66942;52.138;5.216;2023-03-19T05:01:33;101152.0;;;13.78;61.7
64019;BME280;66942;52.138;5.216;2023-03-19T05:03:09;101157.0;;;13.58;61.98
64019;BME280;66942;52.138;5.216;2023-03-19T05:06:22;101152.0;;;13.71;61.74
64019;BME280;66942;52.138;5.216;2023-03-19T05:09:34;101159.0;;;13.46;62.49
64019;BME280;66942;52.138;5.216;2023-03-19T05:12:47;101161.0;;;13.42;62.54
64019;BME280;66942;52.138;5.216;2023-03-19T05:14:24;101161.0;;;13.6;62.35
64019;BME280;66942;52.138;5.216;2023-03-19T05:16:00;101163.0;;;13.71;62.35
64019;BME280;66942;52.138;5.216;2023-03-19T05:19:13;101172.0;;;13.3;63.3
64019;BME280;66942;52.138;5.216;2023-03-19T05:20:49;101177.0;;;13.36;63.26
64019;BME280;66942;52.138;5.216;2023-03-19T05:22:27;101180.0;;;13.14;63.95
64019;BME280;66942;52.138;5.216;2023-03-19T05:24:04;101180.0;;;13.2;63.5
64019;BME280;66942;52.138;5.216;2023-03-19T05:27:16;101182.0;;;13.14;63.53
64019;BME280;66942;52.138;5.216;2023-03-19T05:28:54;101182.0;;;13.36;63.11
64019;BME280;66942;52.138;5.216;2023-03-19T05:30:30;101188.0;;;13.18;64.11
64019;BME280;66942;52.138;5.216;2023-03-19T05:33:44;101188.0;;;13.12;64.56
64019;BME280;66942;52.138;5.216;2023-03-19T05:35:21;101191.0;;;13.33;63.99
64019;BME280;66942;52.138;5.216;2023-03-19T05:36:57;101190.0;;;13.53;64.02
64019;BME280;66942;52.138;5.216;2023-03-19T05:40:11;101196.0;;;13.69;63.98
64019;BME280;66942;52.138;5.216;2023-03-19T05:41:48;101200.0;;;13.7;64.22
64019;BME280;66942;52.138;5.216;2023-03-19T05:43:25;101198.0;;;13.84;64.16
64019;BME280;66942;52.138;5.216;2023-03-19T05:45:02;101203.0;;;14.0;63.74
64019;BME280;66942;52.138;5.216;2023-03-19T05:48:16;101208.0;;;14.02;63.83
64019;BME280;66942;52.138;5.216;2023-03-19T05:49:52;101214.0;;;14.04;63.9
64019;BME280;66942;52.138;5.216;2023-03-19T05:51:29;101215.0;;;13.98;64.22
64019;BME280;66942;52.138;5.216;2023-03-19T05:54:44;101214.0;;;14.1;63.7
64019;BME280;66942;52.138;5.216;2023-03-19T05:56:20;101217.0;;;14.08;63.34
64019;BME280;66942;52.138;5.216;2023-03-19T05:57:56;101216.0;;;14.19;63.25
64019;BME280;66942;52.138;5.216;2023-03-19T05:59:33;101217.0;;;14.25;63.17
64019;BME280;66942;52.138;5.216;2023-03-19T06:02:46;101218.0;;;14.28;62.97
64019;BME280;66942;52.138;5.216;2023-03-19T06:04:22;101217.0;;;14.22;63.23
64019;BME280;66942;52.138;5.216;2023-03-19T06:05:59;101215.0;;;14.16;63.45
64019;BME280;66942;52.138;5.216;2023-03-19T06:09:12;101221.0;;;14.32;62.96
64019;BME280;66942;52.138;5.216;2023-03-19T06:10:48;101217.0;;;14.33;62.73
64019;BME280;66942;52.138;5.216;2023-03-19T06:12:27;101220.0;;;14.28;62.99
64019;BME280;66942;52.138;5.216;2023-03-19T06:15:41;101221.0;;;14.25;63.01
64019;BME280;66942;52.138;5.216;2023-03-19T06:17:18;101223.0;;;14.15;63.23
64019;BME280;66942;52.138;5.216;2023-03-19T06:18:54;101224.0;;;14.21;63.1
64019;BME280;66942;52.138;5.216;2023-03-19T06:20:31;101222.0;;;14.28;63.01
64019;BME280;66942;52.138;5.216;2023-03-19T06:23:44;101225.0;;;14.29;63.1
64019;BME280;66942;52.138;5.216;2023-03-19T06:25:20;101227.0;;;14.34;62.79
64019;BME280;66942;52.138;5.216;2023-03-19T06:26:57;101227.0;;;14.34;62.83
64019;BME280;66942;52.138;5.216;2023-03-19T06:30:12;101233.0;;;14.41;62.73
64019;BME280;66942;52.138;5.216;2023-03-19T06:31:48;101233.0;;;14.53;62.3
64019;BME280;66942;52.138;5.216;2023-03-19T06:33:25;101235.0;;;14.47;62.25
64019;BME280;66942;52.138;5.216;2023-03-19T06:35:02;101235.0;;;14.37;61.92
64019;BME280;66942;52.138;5.216;2023-03-19T06:38:16;101238.0;;;14.29;61.82
64019;BME280;66942;52.138;5.216;2023-03-19T06:39:53;101242.0;;;14.32;61.7
64019;BME280;66942;52.138;5.216;2023-03-19T06:41:29;101247.0;;;14.31;61.67
64019;BME280;66942;52.138;5.216;2023-03-19T06:44:42;101259.0;;;14.34;61.81
64019;BME280;66942;52.138;5.216;2023-03-19T06:46:19;101262.0;;;14.43;61.7
64019;BME280;66942;52.138;5.216;2023-03-19T06:47:56;101262.0;;;14.37;61.92
64019;BME280;66942;52.138;5.216;2023-03-19T06:51:09;101268.0;;;14.36;61.84
64019;BME280;66942;52.138;5.216;2023-03-19T06:52:45;101269.0;;;14.38;61.63
64019;BME280;66942;52.138;5.216;2023-03-19T06:54:22;101273.0;;;14.27;61.76
64019;BME280;66942;52.138;5.216;2023-03-19T06:55:59;101277.0;;;14.43;61.44
64019;BME280;66942;52.138;5.216;2023-03-19T06:59:12;101275.0;;;14.44;61.22
64019;BME280;66942;52.138;5.216;2023-03-19T07:00:49;101280.0;;;14.39;61.44
64019;BME280;66942;52.138;5.216;2023-03-19T07:02:25;101276.0;;;14.44;61.29
64019;BME280;66942;52.138;5.216;2023-03-19T07:05:39;101278.0;;;14.48;61.47
64019;BME280;66942;52.138;5.216;2023-03-19T07:07:15;101281.0;;;14.63;60.98
64019;BME280;66942;52.138;5.216;2023-03-19T07:08:53;101282.0;;;14.44;60.99
64019;BME280;66942;52.138;5.216;2023-03-19T07:12:07;101281.0;;;14.52;60.68
64019;BME280;66942;52.138;5.216;2023-03-19T07:13:44;101285.0;;;14.27;61.36
64019;BME280;66942;52.138;5.216;2023-03-19T07:15:21;101292.0;;;14.45;61.31
64019;BME280;66942;52.138;5.216;2023-03-19T07:16:57;101290.0;;;14.35;61.31
64019;BME280;66942;52.138;5.216;2023-03-19T07:20:12;101292.0;;;14.32;61.68
64019;BME280;66942;52.138;5.216;2023-03-19T07:21:50;101294.0;;;14.55;61.15
64019;BME280;66942;52.138;5.216;2023-03-19T07:23:26;101300.0;;;14.68;60.72
64019;BME280;66942;52.138;5.216;2023-03-19T07:26:39;101308.0;;;14.77;60.4
64019;BME280;66942;52.138;5.216;2023-03-19T07:28:17;101316.0;;;14.61;60.73
64019;BME280;66942;52.138;5.216;2023-03-19T07:29:53;101319.0;;;14.57;60.74
64019;BME280;66942;52.138;5.216;2023-03-19T07:33:06;101321.0;;;14.7;60.21
64019;BME280;66942;52.138;5.216;2023-03-19T07:34:43;101327.0;;;14.56;60.76
64019;BME280;66942;52.138;5.216;2023-03-19T07:36:19;101321.0;;;14.73;60.45
64019;BME280;66942;52.138;5.216;2023-03-19T07:37:56;101326.0;;;14.77;60.4
64019;BME280;66942;52.138;5.216;2023-03-19T07:41:09;101326.0;;;14.67;61.06
64019;BME280;66942;52.138;5.216;2023-03-19T07:42:45;101332.0;;;14.68;60.42
64019;BME280;66942;52.138;5.216;2023-03-19T07:44:22;101331.0;;;14.71;60.34
64019;BME280;66942;52.138;5.216;2023-03-19T07:47:36;101336.0;;;14.73;60.26
64019;BME280;66942;52.138;5.216;2023-03-19T07:49:12;101333.0;;;14.58;60.72
64019;BME280;66942;52.138;5.216;2023-03-19T07:50:49;101336.0;;;14.66;60.37
64019;BME280;66942;52.138;5.216;2023-03-19T07:54:03;101340.0;;;14.51;60.78
64019;BME280;66942;52.138;5.216;2023-03-19T07:55:41;101335.0;;;14.59;60.93
64019;BME280;66942;52.138;5.216;2023-03-19T07:57:18;101337.0;;;14.53;61.04
64019;BME280;66942;52.138;5.216;2023-03-19T07:58:54;101344.0;;;14.69;60.55
64019;BME280;66942;52.138;5.216;2023-03-19T08:02:09;101342.0;;;14.56;60.65
64019;BME280;66942;52.138;5.216;2023-03-19T08:03:46;101338.0;;;14.71;60.5
64019;BME280;66942;52.138;5.216;2023-03-19T08:05:22;101345.0;;;14.74;60.54
64019;BME280;66942;52.138;5.216;2023-03-19T08:08:36;101348.0;;;14.51;61.2
64019;BME280;66942;52.138;5.216;2023-03-19T08:10:13;101348.0;;;14.69;61.04
64019;BME280;66942;52.138;5.216;2023-03-19T08:11:49;101345.0;;;14.78;60.51
64019;BME280;66942;52.138;5.216;2023-03-19T08:13:25;101348.0;;;14.71;60.84
64019;BME280;66942;52.138;5.216;2023-03-19T08:16:39;101349.0;;;14.66;61.14
64019;BME280;66942;52.138;5.216;2023-03-19T08:18:16;101350.0;;;14.79;61.31
64019;BME280;66942;52.138;5.216;2023-03-19T08:19:52;101355.0;;;14.61;61.36
64019;BME280;66942;52.138;5.216;2023-03-19T08:23:04;101356.0;;;14.74;61.36
64019;BME280;66942;52.138;5.216;2023-03-19T08:24:41;101360.0;;;14.62;61.22
64019;BME280;66942;52.138;5.216;2023-03-19T08:26:17;101360.0;;;14.77;61.06
64019;BME280;66942;52.138;5.216;2023-03-19T08:29:30;101358.0;;;15.03;60.44
64019;BME280;66942;52.138;5.216;2023-03-19T08:31:07;101362.0;;;15.12;59.76
64019;BME280;66942;52.138;5.216;2023-03-19T08:32:44;101367.0;;;14.9;60.74
64019;BME280;66942;52.138;5.216;2023-03-19T08:34:21;101360.0;;;14.88;60.32
64019;BME280;66942;52.138;5.216;2023-03-19T08:37:40;101362.0;;;15.15;59.62
64019;BME280;66942;52.138;5.216;2023-03-19T08:39:18;101368.0;;;14.88;60.66
64019;BME280;66942;52.138;5.216;2023-03-19T08:40:54;101371.0;;;15.29;60.17
64019;BME280;66942;52.138;5.216;2023-03-19T08:44:07;101370.0;;;15.41;59.54
64019;BME280;66942;52.138;5.216;2023-03-19T08:45:44;101375.0;;;15.35;59.3
64019;BME280;66942;52.138;5.216;2023-03-19T08:47:21;101375.0;;;14.97;60.09
64019;BME280;66942;52.138;5.216;2023-03-19T08:48:58;101380.0;;;15.11;59.9
64019;BME280;66942;52.138;5.216;2023-03-19T08:52:12;101385.0;;;15.34;59.24
64019;BME280;66942;52.138;5.216;2023-03-19T08:53:48;101396.0;;;15.51;59.03
64019;BME280;66942;52.138;5.216;2023-03-19T08:55:24;101390.0;;;15.42;58.54
64019;BME280;66942;52.138;5.216;2023-03-19T08:58:36;101393.0;;;15.47;58.67
64019;BME280;66942;52.138;5.216;2023-03-19T09:00:14;101394.0;;;15.2;59.45
64019;BME280;66942;52.138;5.216;2023-03-19T09:01:52;101397.0;;;15.35;59.02
64019;BME280;66942;52.138;5.216;2023-03-19T09:05:06;101399.0;;;15.36;59.22
64019;BME280;66942;52.138;5.216;2023-03-19T09:06:43;101398.0;;;15.27;58.92
64019;BME280;66942;52.138;5.216;2023-03-19T09:08:19;101401.0;;;15.31;59.13
64019;BME280;66942;52.138;5.216;2023-03-19T09:09:55;101405.0;;;15.33;59.22
64019;BME280;66942;52.138;5.216;2023-03-19T09:13:07;101405.0;;;15.32;59.37
64019;BME280;66942;52.138;5.216;2023-03-19T09:14:44;101405.0;;;15.63;58.71
64019;BME280;66942;52.138;5.216;2023-03-19T09:19:33;101414.0;;;15.4;59.73
64019;BME280;66942;52.138;5.216;2023-03-19T09:21:10;101417.0;;;15.37;59.02
64019;BME280;66942;52.138;5.216;2023-03-19T09:22:46;101413.0;;;15.64;58.09
64019;BME280;66942;52.138;5.216;2023-03-19T09:25:58;101418.0;;;15.52;58.8
64019;BME280;66942;52.138;5.216;2023-03-19T09:27:36;101416.0;;;15.22;60.42
64019;BME280;66942;52.138;5.216;2023-03-19T09:29:13;101412.0;;;15.32;59.62
64019;BME280;66942;52.138;5.216;2023-03-19T09:30:51;101419.0;;;15.37;59.67
64019;BME280;66942;52.138;5.216;2023-03-19T09:34:05;101423.0;;;15.28;59.34
64019;BME280;66942;52.138;5.216;2023-03-19T09:35:41;101422.0;;;15.35;59.0
64019;BME280;66942;52.138;5.216;2023-03-19T09:37:18;101425.0;;;15.54;58.59
64019;BME280;66942;52.138;5.216;2023-03-19T09:40:35;101434.0;;;15.57;59.0
64019;BME280;66942;52.138;5.216;2023-03-19T09:42:23;101439.0;;;15.56;58.45
64019;BME280;66942;52.138;5.216;2023-03-19T09:44:10;101443.0;;;15.69;58.42
64019;BME280;66942;52.138;5.216;2023-03-19T09:45:47;101440.0;;;15.34;59.7
64019;BME280;66942;52.138;5.216;2023-03-19T09:49:11;101442.0;;;15.37;59.0
64019;BME280;66942;52.138;5.216;2023-03-19T09:50:51;101447.0;;;15.31;59.59
64019;BME280;66942;52.138;5.216;2023-03-19T09:52:35;101448.0;;;15.53;59.44
64019;BME280;66942;52.138;5.216;2023-03-19T09:54:25;101449.0;;;15.62;59.56
64019;BME280;66942;52.138;5.216;2023-03-19T09:56:04;101450.0;;;15.99;58.23
64019;BME280;66942;52.138;5.216;2023-03-19T09:59:20;101453.0;;;16.03;57.86
64019;BME280;66942;52.138;5.216;2023-03-19T10:01:00;101455.0;;;16.04;57.91
64019;BME280;66942;52.138;5.216;2023-03-19T10:02:40;101456.0;;;15.79;58.81
64019;BME280;66942;52.138;5.216;2023-03-19T10:04:37;101460.0;;;15.67;59.23
64019;BME280;66942;52.138;5.216;2023-03-19T10:06:29;101457.0;;;15.85;59.17
64019;BME280;66942;52.138;5.216;2023-03-19T10:10:16;101469.0;;;15.88;58.95
64019;BME280;66942;52.138;5.216;2023-03-19T10:12:18;101468.0;;;15.91;58.63
64019;BME280;66942;52.138;5.216;2023-03-19T10:14:12;101468.0;;;15.65;59.54
64019;BME280;66942;52.138;5.216;2023-03-19T10:15:58;101466.0;;;15.66;59.61
64019;BME280;66942;52.138;5.216;2023-03-19T10:17:39;101466.0;;;15.56;60.58
64019;BME280;66942;52.138;5.216;2023-03-19T10:19:35;101469.0;;;15.69;59.68
64019;BME280;66942;52.138;5.216;2023-03-19T10:21:16;101468.0;;;15.84;58.63
64019;BME280;66942;52.138;5.216;2023-03-19T10:24:45;101469.0;;;15.82;58.37
64019;BME280;66942;52.138;5.216;2023-03-19T10:26:28;101472.0;;;15.79;59.01
64019;BME280;66942;52.138;5.216;2023-03-19T10:28:10;101476.0;;;15.78;59.39
64019;BME280;66942;52.138;5.216;2023-03-19T10:29:49;101481.0;;;15.82;59.06
64019;BME280;66942;52.138;5.216;2023-03-19T10:31:28;101482.0;;;15.93;58.54
64019;BME280;66942;52.138;5.216;2023-03-19T10:34:57;101486.0;;;15.83;58.67
64019;BME280;66942;52.138;5.216;2023-03-19T10:36:36;101484.0;;;15.92;58.01
64019;BME280;66942;52.138;5.216;2023-03-19T10:38:18;101483.0;;;16.0;58.03
64019;BME280;66942;52.138;5.216;2023-03-19T10:39:56;101480.0;;;15.94;57.77
64019;BME280;66942;52.138;5.216;2023-03-19T10:43:24;101486.0;;;16.12;57.76
64019;BME280;66942;52.138;5.216;2023-03-19T10:45:04;101487.0;;;16.14;57.74
64019;BME280;66942;52.138;5.216;2023-03-19T10:46:57;101488.0;;;16.25;57.79
64019;BME280;66942;52.138;5.216;2023-03-19T10:48:42;101493.0;;;16.07;57.9
64019;BME280;66942;52.138;5.216;2023-03-19T10:50:21;101493.0;;;16.16;57.73
64019;BME280;66942;52.138;5.216;2023-03-19T10:53:40;101495.0;;;15.93;58.23
64019;BME280;66942;52.138;5.216;2023-03-19T10:55:22;101497.0;;;16.03;57.41
64019;BME280;66942;52.138;5.216;2023-03-19T10:57:00;101499.0;;;16.02;57.61
64019;BME280;66942;52.138;5.216;2023-03-19T10:58:37;101506.0;;;15.88;58.4
64019;BME280;66942;52.138;5.216;2023-03-19T11:01:56;101510.0;;;15.92;59.04
64019;BME280;66942;52.138;5.216;2023-03-19T11:03:35;101516.0;;;15.97;57.96
64019;BME280;66942;52.138;5.216;2023-03-19T11:05:23;101518.0;;;15.89;58.56
64019;BME280;66942;52.138;5.216;2023-03-19T11:07:02;101517.0;;;16.18;57.71
64019;BME280;66942;52.138;5.216;2023-03-19T11:10:32;101517.0;;;15.76;59.25
64019;BME280;66942;52.138;5.216;2023-03-19T11:12:16;101522.0;;;15.85;59.19